Time;durP1;ratioP1;P1;durP2;ratioP2;P2;SDS_P1;SDS_P2;PMS_P1;PMS_P2;Temp;Humidity;BMP_temperature;BMP_pressure;BME280_temperature;BME280_humidity;BME280_pressure;Samples;Min_cycle;Max_cycle;Signal;HPM_P1;HPM_P2
2022/05/31 00:01:02;;;;;;;0.57;0.55;;;8.00;99.90;;;;;;4978898;28;20098;-71
2022/05/31 00:03:28;;;;;;;0.95;0.88;;;8.00;99.90;;;;;;4970125;28;20154;-72
2022/05/31 00:05:53;;;;;;;0.45;0.45;;;8.00;99.90;;;;;;4998449;28;20104;-71
2022/05/31 00:08:19;;;;;;;1.65;1.02;;;8.00;99.90;;;;;;4998249;28;20042;-71
2022/05/31 00:10:44;;;;;;;0.50;0.50;;;8.00;99.90;;;;;;4980686;28;20065;-71
2022/05/31 00:13:10;;;;;;;0.50;0.50;;;8.00;99.90;;;;;;4975149;28;20043;-71
2022/05/31 00:15:36;;;;;;;0.52;0.52;;;8.00;99.90;;;;;;4979052;28;20043;-71
2022/05/31 00:18:01;;;;;;;0.60;0.60;;;8.00;99.90;;;;;;4961497;28;20054;-70
2022/05/31 00:20:27;;;;;;;0.52;0.52;;;8.00;99.90;;;;;;4961302;28;20086;-71
2022/05/31 00:22:53;;;;;;;0.50;0.50;;;8.00;99.90;;;;;;4964616;28;20057;-71
2022/05/31 00:25:19;;;;;;;0.50;0.50;;;8.10;99.90;;;;;;4997922;28;20046;-71
2022/05/31 00:27:45;;;;;;;0.50;0.50;;;8.10;99.90;;;;;;4981043;28;20467;-71
2022/05/31 00:30:12;;;;;;;0.50;0.50;;;8.10;99.90;;;;;;4980435;28;20057;-71
2022/05/31 00:32:41;;;;;;;0.50;0.50;;;8.20;99.90;;;;;;4979156;28;20462;-71
2022/05/31 00:35:12;;;;;;;0.77;0.77;;;8.10;99.90;;;;;;4978331;28;20043;-71
2022/05/31 00:37:38;;;;;;;0.60;0.60;;;8.10;99.90;;;;;;4977751;28;20046;-71
2022/05/31 00:40:05;;;;;;;0.50;0.50;;;8.00;99.90;;;;;;4978039;28;20039;-71
2022/05/31 00:42:47;;;;;;;0.70;0.70;;;8.00;99.90;;;;;;4961280;28;20046;-71
2022/05/31 00:45:14;;;;;;;0.75;0.68;;;8.00;99.90;;;;;;4945114;28;20051;-71
2022/05/31 00:47:39;;;;;;;0.45;0.45;;;7.90;99.90;;;;;;4960950;28;20047;-71
2022/05/31 00:50:07;;;;;;;1.00;0.90;;;7.90;99.90;;;;;;4944877;28;20047;-72
2022/05/31 00:52:39;;;;;;;1.63;1.52;;;7.90;99.90;;;;;;4961003;28;20050;-71
2022/05/31 00:55:22;;;;;;;0.60;0.60;;;7.90;99.90;;;;;;4960694;28;20116;-71
2022/05/31 00:58:14;;;;;;;0.50;0.50;;;7.90;99.90;;;;;;4978002;28;20047;-71
2022/05/31 01:00:41;;;;;;;0.40;0.40;;;7.90;99.90;;;;;;4959661;28;20087;-72
2022/05/31 01:03:09;;;;;;;0.43;0.43;;;8.00;99.90;;;;;;4944963;28;20055;-71
2022/05/31 01:05:35;;;;;;;0.90;0.90;;;8.00;99.90;;;;;;4944694;28;20050;-71
2022/05/31 01:08:01;;;;;;;0.85;0.82;;;8.00;99.90;;;;;;4960355;28;20113;-71
2022/05/31 01:10:27;;;;;;;0.68;0.57;;;8.10;99.90;;;;;;4977238;28;20047;-70
2022/05/31 01:12:53;;;;;;;0.40;0.40;;;8.20;99.90;;;;;;4979762;28;20073;-71
2022/05/31 01:15:19;;;;;;;0.70;0.70;;;8.20;99.90;;;;;;4969478;28;20058;-72
2022/05/31 01:17:45;;;;;;;1.50;1.40;;;8.20;99.90;;;;;;4977915;28;20250;-71
2022/05/31 01:20:15;;;;;;;0.60;0.60;;;8.20;99.90;;;;;;4977343;28;20138;-71
2022/05/31 01:22:43;;;;;;;0.50;0.50;;;8.20;99.90;;;;;;4960504;28;20102;-70
2022/05/31 01:25:13;;;;;;;0.50;0.50;;;8.20;99.90;;;;;;4979699;28;20050;-71
2022/05/31 01:27:44;;;;;;;0.60;0.60;;;8.20;99.90;;;;;;4979650;28;20054;-71
2022/05/31 01:30:11;;;;;;;0.50;0.50;;;8.30;99.90;;;;;;4979602;28;20046;-71
2022/05/31 01:32:44;;;;;;;0.70;0.70;;;8.30;99.90;;;;;;4979781;28;20050;-71
2022/05/31 01:35:18;;;;;;;0.45;0.45;;;8.30;99.90;;;;;;4976245;28;20078;-71
2022/05/31 01:37:50;;;;;;;0.70;0.70;;;8.30;99.90;;;;;;4961219;28;20121;-71
2022/05/31 01:40:32;;;;;;;1.40;0.82;;;8.40;99.90;;;;;;4975660;28;20054;-71
2022/05/31 01:42:58;;;;;;;0.55;0.55;;;8.40;99.90;;;;;;4996452;28;20047;-71
2022/05/31 01:45:30;;;;;;;0.50;0.50;;;8.40;99.90;;;;;;4996389;28;20088;-72
2022/05/31 01:48:00;;;;;;;0.60;0.60;;;8.40;99.90;;;;;;4979660;28;20054;-71
2022/05/31 01:50:26;;;;;;;0.50;0.50;;;8.40;99.90;;;;;;4969332;28;20051;-72
2022/05/31 01:52:54;;;;;;;0.40;0.40;;;8.40;99.90;;;;;;4959605;28;20053;-71
2022/05/31 01:55:20;;;;;;;0.50;0.50;;;8.40;99.90;;;;;;4959549;28;20061;-72
2022/05/31 01:57:52;;;;;;;0.60;0.60;;;8.40;99.90;;;;;;4960095;28;20374;-71
2022/05/31 02:00:18;;;;;;;0.57;0.57;;;8.40;99.90;;;;;;4967577;28;20149;-71
2022/05/31 02:02:48;;;;;;;0.80;0.80;;;8.40;99.90;;;;;;4962911;28;20046;-71
2022/05/31 02:05:15;;;;;;;0.50;0.50;;;8.50;99.90;;;;;;4995894;28;20038;-71
2022/05/31 02:07:41;;;;;;;0.50;0.50;;;8.50;99.90;;;;;;4978883;28;20066;-71
2022/05/31 02:10:07;;;;;;;0.60;0.60;;;8.50;99.90;;;;;;4971633;28;20050;-72
2022/05/31 02:12:32;;;;;;;1.33;0.82;;;8.50;99.90;;;;;;4976672;28;20454;-71
2022/05/31 02:14:58;;;;;;;0.50;0.50;;;8.50;99.90;;;;;;4959314;28;20383;-71
2022/05/31 02:17:24;;;;;;;1.42;1.33;;;8.50;99.90;;;;;;4959402;28;20054;-71
2022/05/31 02:19:50;;;;;;;1.02;0.77;;;8.50;99.90;;;;;;4963440;28;20046;-72
2022/05/31 02:22:19;;;;;;;0.57;0.57;;;8.50;99.90;;;;;;4974123;28;20072;-72
2022/05/31 02:24:45;;;;;;;0.68;0.50;;;8.50;99.90;;;;;;4978683;28;20073;-71
2022/05/31 02:27:11;;;;;;;0.47;0.47;;;8.50;99.90;;;;;;4978714;28;20050;-71
2022/05/31 02:29:38;;;;;;;0.50;0.50;;;8.50;99.90;;;;;;4993270;28;20042;-71
2022/05/31 02:32:06;;;;;;;1.00;0.73;;;8.50;99.90;;;;;;4970372;28;20046;-72
2022/05/31 02:34:39;;;;;;;0.50;0.50;;;8.50;99.90;;;;;;4976326;28;20490;-71
2022/05/31 02:37:05;;;;;;;2.03;1.37;;;8.50;99.90;;;;;;4943385;28;20415;-71
2022/05/31 02:39:30;;;;;;;0.50;0.50;;;8.50;99.90;;;;;;4977146;28;20042;-71
2022/05/31 02:41:56;;;;;;;0.85;0.85;;;8.50;99.90;;;;;;4969470;28;20034;-71
2022/05/31 02:44:23;;;;;;;0.50;0.50;;;8.50;99.90;;;;;;4959251;28;20075;-71
2022/05/31 02:46:49;;;;;;;0.60;0.60;;;8.50;99.90;;;;;;4975311;28;20062;-71
2022/05/31 02:49:15;;;;;;;0.60;0.60;;;8.50;99.90;;;;;;4959215;28;20043;-71
2022/05/31 02:51:44;;;;;;;0.50;0.50;;;8.50;99.90;;;;;;4977169;28;20054;-71
2022/05/31 02:54:12;;;;;;;0.60;0.60;;;8.50;99.90;;;;;;4978643;28;20081;-71
2022/05/31 02:56:38;;;;;;;0.50;0.50;;;8.50;99.90;;;;;;4978092;28;20493;-71
2022/05/31 02:59:05;;;;;;;0.40;0.40;;;8.50;99.90;;;;;;4995606;28;20055;-71
2022/05/31 03:01:33;;;;;;;0.57;0.57;;;8.50;99.90;;;;;;4928184;28;20073;-72
2022/05/31 03:03:59;;;;;;;1.05;0.80;;;8.50;99.90;;;;;;4958745;28;20055;-71
2022/05/31 03:06:24;;;;;;;0.70;0.70;;;8.50;99.90;;;;;;4959062;28;20070;-71
2022/05/31 03:08:51;;;;;;;0.80;0.80;;;8.50;99.90;;;;;;4942789;28;20062;-70
2022/05/31 03:11:32;;;;;;;0.73;0.73;;;8.50;99.90;;;;;;4957077;28;20109;-71
2022/05/31 03:14:04;;;;;;;0.50;0.50;;;8.50;99.90;;;;;;4995172;28;20064;-73
2022/05/31 03:16:31;;;;;;;0.60;0.60;;;8.50;99.90;;;;;;4977504;28;20486;-71
2022/05/31 03:19:03;;;;;;;0.60;0.60;;;8.50;99.90;;;;;;4995508;28;20042;-71
2022/05/31 03:21:40;;;;;;;0.50;0.50;;;8.80;99.90;;;;;;4961397;28;20075;-72
2022/05/31 03:24:14;;;;;;;0.60;0.60;;;8.50;99.90;;;;;;4958754;28;20059;-71
2022/05/31 03:26:41;;;;;;;0.60;0.60;;;8.50;99.90;;;;;;4975855;28;20104;-71
2022/05/31 03:29:08;;;;;;;0.52;0.52;;;8.50;99.90;;;;;;4958775;28;20155;-72
2022/05/31 03:31:35;;;;;;;0.50;0.50;;;8.50;99.90;;;;;;4975290;28;20054;-71
2022/05/31 03:34:01;;;;;;;3.55;0.82;;;8.50;99.90;;;;;;4994920;28;20042;-71
2022/05/31 03:36:27;;;;;;;0.60;0.60;;;8.50;99.90;;;;;;4977734;28;20078;-72
2022/05/31 03:38:52;;;;;;;0.60;0.60;;;8.40;99.90;;;;;;4974877;28;20490;-72
2022/05/31 03:41:18;;;;;;;0.50;0.50;;;8.50;99.90;;;;;;4963078;28;20047;-71
2022/05/31 03:43:44;;;;;;;0.50;0.50;;;8.50;99.90;;;;;;4958045;28;20137;-70
2022/05/31 03:46:14;;;;;;;0.40;0.40;;;8.50;99.90;;;;;;4926907;28;20042;-71
2022/05/31 03:48:39;;;;;;;0.47;0.47;;;8.50;99.90;;;;;;4958866;28;20051;-72
2022/05/31 03:51:08;;;;;;;0.50;0.50;;;8.50;99.90;;;;;;4987757;28;20058;-71
2022/05/31 03:53:34;;;;;;;0.70;0.70;;;8.50;99.90;;;;;;4977986;28;20050;-72
2022/05/31 03:56:11;;;;;;;0.57;0.57;;;8.50;99.90;;;;;;4994706;28;20093;-71
2022/05/31 03:58:38;;;;;;;0.63;0.63;;;8.50;99.90;;;;;;4965517;28;20047;-72
2022/05/31 04:01:04;;;;;;;0.40;0.40;;;8.60;99.90;;;;;;4969444;28;20054;-71
2022/05/31 04:03:29;;;;;;;0.65;0.60;;;8.60;99.90;;;;;;4962044;28;20133;-71
2022/05/31 04:05:55;;;;;;;0.60;0.60;;;8.60;99.90;;;;;;4968820;28;20101;-72
2022/05/31 04:08:21;;;;;;;0.50;0.50;;;8.60;99.90;;;;;;5010854;28;20050;-71
2022/05/31 04:10:47;;;;;;;0.93;0.85;;;8.60;99.90;;;;;;5000833;28;20050;-71
2022/05/31 04:13:14;;;;;;;1.55;1.13;;;8.60;99.90;;;;;;4978033;28;20471;-71
2022/05/31 04:15:41;;;;;;;0.57;0.57;;;8.60;99.90;;;;;;4994248;28;20042;-72
2022/05/31 04:18:08;;;;;;;0.40;0.40;;;8.60;99.90;;;;;;4997847;28;20054;-71
2022/05/31 04:20:34;;;;;;;0.60;0.60;;;8.60;99.90;;;;;;4980796;28;20073;-71
2022/05/31 04:25:45;;;;;;;0.50;0.50;;;9.00;99.90;;;;;;4981159;28;20054;-70
2022/05/31 04:28:11;;;;;;;2.50;0.70;;;8.80;99.90;;;;;;4980406;28;20054;-71
2022/05/31 04:30:38;;;;;;;0.50;0.50;;;8.80;99.90;;;;;;4997574;28;20046;-71
2022/05/31 04:33:04;;;;;;;0.40;0.40;;;8.90;99.90;;;;;;4979711;28;20109;-71
2022/05/31 04:35:30;;;;;;;0.68;0.68;;;9.00;99.90;;;;;;4978053;28;20042;-71
2022/05/31 04:37:56;;;;;;;0.75;0.75;;;9.00;99.90;;;;;;4977938;28;20058;-71
2022/05/31 04:40:24;;;;;;;1.00;0.95;;;9.00;99.90;;;;;;4978164;28;20094;-70
2022/05/31 04:42:52;;;;;;;0.77;0.75;;;9.10;99.90;;;;;;4978134;28;20051;-72
2022/05/31 04:45:17;;;;;;;0.40;0.40;;;9.10;99.90;;;;;;4995800;28;20089;-71
2022/05/31 04:47:43;;;;;;;0.50;0.50;;;9.10;99.90;;;;;;4977399;28;20082;-71
2022/05/31 04:50:09;;;;;;;1.17;0.70;;;9.20;99.90;;;;;;4964021;28;20104;-71
2022/05/31 04:52:34;;;;;;;1.05;0.95;;;9.20;99.90;;;;;;4979963;28;20425;-71
2022/05/31 04:55:00;;;;;;;0.70;0.65;;;9.20;99.90;;;;;;4964237;28;20373;-70
2022/05/31 04:57:26;;;;;;;0.68;0.63;;;9.20;99.90;;;;;;4961015;28;20047;-70
2022/05/31 04:59:52;;;;;;;0.45;0.45;;;9.20;99.90;;;;;;4960794;28;20062;-72
2022/05/31 05:02:18;;;;;;;0.73;0.73;;;9.30;99.90;;;;;;4960595;28;20065;-71
2022/05/31 05:04:43;;;;;;;0.80;0.80;;;9.30;99.90;;;;;;4973397;28;20112;-71
2022/05/31 05:07:09;;;;;;;1.55;1.27;;;9.30;99.90;;;;;;4979887;28;20046;-71
2022/05/31 05:09:35;;;;;;;0.85;0.80;;;9.30;99.90;;;;;;4978553;28;20050;-71
2022/05/31 05:12:00;;;;;;;1.23;1.15;;;9.30;99.90;;;;;;4979483;28;20065;-71
2022/05/31 05:14:26;;;;;;;0.82;0.70;;;9.40;99.90;;;;;;4986157;28;20047;-71
2022/05/31 05:16:53;;;;;;;0.57;0.57;;;9.40;99.90;;;;;;4960140;28;20055;-72
2022/05/31 05:19:18;;;;;;;0.60;0.60;;;9.40;99.90;;;;;;4960062;28;20526;-70
2022/05/31 05:21:44;;;;;;;0.95;0.70;;;9.50;99.90;;;;;;4977211;28;20130;-71
2022/05/31 05:24:09;;;;;;;0.50;0.50;;;9.50;99.90;;;;;;4951717;28;20046;-71
2022/05/31 05:26:36;;;;;;;0.47;0.47;;;9.60;99.90;;;;;;4992936;28;20039;-72
2022/05/31 05:31:46;;;;;;;0.55;0.55;;;9.70;99.90;;;;;;4990582;28;20106;-72
2022/05/31 05:34:11;;;;;;;1.00;0.88;;;9.90;99.90;;;;;;4971355;28;20086;-72
2022/05/31 05:36:37;;;;;;;0.85;0.80;;;9.90;99.90;;;;;;4975982;28;20038;-68
2022/05/31 05:39:02;;;;;;;9.73;2.25;;;10.00;99.90;;;;;;4957650;28;20122;-70
2022/05/31 05:41:30;;;;;;;0.60;0.60;;;10.00;99.90;;;;;;4971906;28;20043;-68
2022/05/31 05:43:56;;;;;;;0.82;0.80;;;10.00;99.90;;;;;;4995661;28;20058;-69
2022/05/31 05:46:28;;;;;;;0.75;0.75;;;10.10;99.90;;;;;;4978825;28;20058;-69
2022/05/31 05:48:54;;;;;;;0.70;0.70;;;10.20;99.90;;;;;;4979372;28;20058;-69
2022/05/31 05:51:23;;;;;;;0.50;0.50;;;10.20;99.90;;;;;;4995971;28;20042;-68
2022/05/31 05:53:49;;;;;;;0.50;0.50;;;10.30;99.90;;;;;;5005537;28;20039;-68
2022/05/31 05:56:16;;;;;;;0.57;0.57;;;10.40;99.90;;;;;;4995897;28;20057;-69
2022/05/31 05:58:42;;;;;;;0.47;0.47;;;10.40;99.90;;;;;;4995498;28;20096;-69
2022/05/31 06:01:37;;;;;;;0.40;0.40;;;10.50;99.90;;;;;;4995538;28;20046;-69
2022/05/31 06:04:12;;;;;;;0.60;0.60;;;10.60;99.90;;;;;;4959788;28;20092;-70
2022/05/31 06:06:41;;;;;;;0.60;0.60;;;10.60;99.90;;;;;;4977786;28;20065;-69
2022/05/31 06:09:12;;;;;;;0.50;0.50;;;10.60;99.90;;;;;;4978444;28;20050;-69
2022/05/31 06:11:48;;;;;;;0.95;0.63;;;10.70;99.90;;;;;;4994811;28;20469;-70
2022/05/31 06:14:19;;;;;;;0.60;0.60;;;10.70;99.90;;;;;;4994092;28;20067;-69
2022/05/31 06:16:55;;;;;;;0.70;0.70;;;10.70;99.90;;;;;;4995799;28;20054;-70
2022/05/31 06:19:25;;;;;;;0.57;0.57;;;10.80;99.90;;;;;;4973904;28;20371;-70
2022/05/31 06:21:51;;;;;;;0.70;0.70;;;10.90;99.90;;;;;;4983633;28;20359;-70
2022/05/31 06:24:19;;;;;;;0.60;0.60;;;11.00;99.90;;;;;;4974201;28;20516;-70
2022/05/31 06:26:45;;;;;;;0.60;0.60;;;11.10;99.90;;;;;;4968702;28;20383;-70
2022/05/31 06:29:11;;;;;;;0.40;0.40;;;11.20;99.90;;;;;;4992026;28;20042;-70
2022/05/31 06:31:37;;;;;;;0.40;0.40;;;11.30;99.90;;;;;;4995074;28;20355;-71
2022/05/31 06:34:03;;;;;;;1.50;1.10;;;11.30;99.90;;;;;;4976943;28;20057;-71
2022/05/31 06:36:29;;;;;;;0.40;0.40;;;11.40;99.90;;;;;;4994422;28;20148;-72
2022/05/31 06:38:55;;;;;;;0.70;0.70;;;11.50;99.90;;;;;;4978105;28;20398;-71
2022/05/31 06:41:20;;;;;;;0.50;0.50;;;11.60;99.90;;;;;;4977997;28;20177;-71
2022/05/31 06:43:46;;;;;;;0.63;0.55;;;11.70;99.90;;;;;;4968734;28;20159;-71
2022/05/31 06:46:12;;;;;;;0.50;0.50;;;11.80;99.90;;;;;;4964686;28;20054;-71
2022/05/31 06:48:38;;;;;;;0.60;0.60;;;11.90;99.90;;;;;;4978335;28;20050;-72
2022/05/31 06:51:09;;;;;;;0.50;0.50;;;12.10;99.90;;;;;;4970946;28;20176;-72
2022/05/31 06:58:50;;;;;;;0.77;0.77;;;12.30;99.90;;;;;;4978322;28;20050;-71
2022/05/31 07:01:16;;;;;;;0.70;0.70;;;12.40;99.90;;;;;;4978010;28;20062;-72
2022/05/31 07:03:42;;;;;;;0.55;0.55;;;12.50;99.90;;;;;;4975690;28;20046;-72
2022/05/31 07:06:07;;;;;;;1.05;0.95;;;12.60;99.90;;;;;;4977081;28;20455;-71
2022/05/31 07:08:33;;;;;;;0.50;0.50;;;12.70;99.90;;;;;;4978142;28;20469;-72
2022/05/31 07:11:00;;;;;;;0.70;0.70;;;13.00;99.90;;;;;;4995024;28;20105;-71
2022/05/31 07:13:26;;;;;;;0.70;0.70;;;13.20;99.90;;;;;;4994735;28;20050;-72
2022/05/31 07:15:52;;;;;;;0.60;0.50;;;13.30;99.90;;;;;;4985925;28;20471;-71
2022/05/31 07:18:19;;;;;;;0.60;0.60;;;13.60;99.90;;;;;;4960503;28;20133;-73
2022/05/31 07:20:44;;;;;;;0.40;0.40;;;14.00;99.90;;;;;;4992541;28;20050;-72
2022/05/31 07:23:11;;;;;;;0.98;0.75;;;14.40;99.90;;;;;;4977511;28;20065;-72
2022/05/31 07:25:36;;;;;;;0.65;0.65;;;14.70;99.90;;;;;;4974901;28;20042;-71
2022/05/31 07:28:02;;;;;;;0.45;0.45;;;14.90;99.90;;;;;;4980902;28;20495;-71
2022/05/31 07:30:28;;;;;;;0.43;0.40;;;15.20;99.90;;;;;;4976950;28;20459;-71
2022/05/31 07:32:54;;;;;;;0.50;0.50;;;15.30;99.90;;;;;;4996282;28;20050;-71
2022/05/31 07:35:19;;;;;;;0.40;0.40;;;15.50;99.90;;;;;;4981581;28;20115;-71
2022/05/31 07:37:45;;;;;;;0.68;0.68;;;15.80;99.90;;;;;;4978205;28;20046;-71
2022/05/31 07:40:11;;;;;;;0.30;0.30;;;16.30;99.90;;;;;;4950300;28;20406;-71
2022/05/31 07:42:37;;;;;;;0.60;0.60;;;16.80;99.90;;;;;;4992084;28;20038;-72
2022/05/31 07:45:03;;;;;;;0.77;0.77;;;17.00;99.90;;;;;;4998117;28;20058;-71
2022/05/31 07:47:30;;;;;;;0.30;0.30;;;16.70;99.90;;;;;;4976568;28;20062;-70
2022/05/31 07:49:56;;;;;;;0.57;0.57;;;16.80;99.90;;;;;;4981305;28;20082;-71
2022/05/31 07:52:22;;;;;;;0.40;0.40;;;16.80;99.90;;;;;;4998822;28;20375;-70
2022/05/31 07:54:48;;;;;;;0.40;0.40;;;16.80;99.90;;;;;;4988741;28;20057;-69
2022/05/31 07:59:58;;;;;;;1.45;0.60;;;17.00;99.90;;;;;;4997818;28;20051;-71
2022/05/31 08:02:24;;;;;;;0.28;0.28;;;17.10;99.90;;;;;;4995368;28;20057;-71
2022/05/31 08:04:49;;;;;;;0.38;0.38;;;17.20;99.90;;;;;;4998134;28;20455;-70
2022/05/31 08:07:15;;;;;;;0.43;0.43;;;17.30;99.90;;;;;;4997847;28;20046;-72
2022/05/31 08:09:40;;;;;;;1.20;1.10;;;17.20;99.90;;;;;;4997930;28;20050;-70
2022/05/31 08:12:10;;;;;;;0.75;0.73;;;17.30;99.90;;;;;;4997030;28;20142;-71
2022/05/31 08:14:36;;;;;;;0.28;0.28;;;17.10;99.90;;;;;;4980535;28;20120;-71
2022/05/31 08:17:03;;;;;;;0.47;0.47;;;16.90;99.90;;;;;;4997512;28;20066;-72
2022/05/31 08:19:29;;;;;;;0.20;0.20;;;17.40;99.90;;;;;;4971059;28;20067;-72
2022/05/31 08:21:56;;;;;;;1.58;0.73;;;18.60;99.90;;;;;;4978327;28;20050;-69
2022/05/31 08:24:23;;;;;;;0.40;0.40;;;19.50;99.90;;;;;;4952936;28;20042;-71
2022/05/31 08:26:48;;;;;;;0.30;0.30;;;20.00;99.90;;;;;;4946140;28;20061;-70
2022/05/31 08:29:14;;;;;;;0.30;0.30;;;20.70;99.90;;;;;;4977470;28;20488;-71
2022/05/31 08:31:40;;;;;;;0.40;0.40;;;21.20;99.90;;;;;;4980986;28;20408;-71
2022/05/31 08:34:07;;;;;;;3.55;0.43;;;21.30;99.90;;;;;;4981015;28;20121;-71
2022/05/31 08:36:33;;;;;;;1.35;0.95;;;21.60;99.90;;;;;;4980865;28;20046;-71
2022/05/31 08:38:59;;;;;;;1.02;0.52;;;21.50;99.20;;;;;;4980628;28;20042;-71
2022/05/31 08:41:28;;;;;;;0.52;0.40;;;21.50;99.90;;;;;;4979836;28;20141;-72
2022/05/31 08:44:28;;;;;;;0.20;0.20;;;21.40;97.90;;;;;;4996960;28;20042;-71
2022/05/31 08:47:17;;;;;;;0.20;0.20;;;21.50;99.50;;;;;;4980495;28;20124;-71
2022/05/31 08:53:04;;;;;;;0.32;0.30;;;21.50;95.30;;;;;;4980304;28;20374;-71
2022/05/31 08:58:39;;;;;;;0.90;0.30;;;21.40;97.00;;;;;;4963823;28;20054;-71
2022/05/31 09:01:07;;;;;;;0.20;0.20;;;21.90;96.40;;;;;;4977590;28;20456;-71
2022/05/31 09:03:43;;;;;;;0.52;0.50;;;22.10;97.20;;;;;;4944852;28;20058;-71
2022/05/31 09:06:17;;;;;;;0.40;0.40;;;22.20;97.00;;;;;;4960452;28;20050;-71
2022/05/31 09:08:50;;;;;;;0.20;0.20;;;22.30;92.80;;;;;;4960836;28;20062;-71
2022/05/31 09:11:32;;;;;;;0.40;0.40;;;21.80;93.60;;;;;;4962110;28;20460;-71
2022/05/31 09:14:06;;;;;;;0.40;0.40;;;21.30;93.40;;;;;;4980499;28;20093;-71
2022/05/31 09:16:51;;;;;;;1.45;0.73;;;20.90;91.10;;;;;;4996959;28;20439;-71
2022/05/31 09:19:57;;;;;;;0.10;0.10;;;20.60;92.20;;;;;;4991504;28;20101;-71
2022/05/31 09:22:23;;;;;;;0.38;0.38;;;20.00;93.10;;;;;;4982417;28;20450;-71
2022/05/31 09:24:48;;;;;;;0.20;0.20;;;19.70;94.40;;;;;;4996987;28;20073;-71
2022/05/31 09:27:40;;;;;;;0.20;0.20;;;19.80;94.90;;;;;;4979891;28;20046;-71
2022/05/31 09:30:25;;;;;;;0.30;0.30;;;19.80;93.00;;;;;;4979743;28;20459;-71
2022/05/31 09:32:51;;;;;;;0.45;0.45;;;19.80;91.50;;;;;;4996922;28;20347;-71
2022/05/31 09:35:55;;;;;;;0.20;0.20;;;20.00;92.70;;;;;;4983465;28;20054;-71
2022/05/31 09:38:45;;;;;;;0.40;0.40;;;20.00;93.50;;;;;;4883599;29;20095;-71
2022/05/31 09:41:38;;;;;;;0.90;0.85;;;20.00;93.70;;;;;;4973758;28;20059;-70
2022/05/31 09:44:12;;;;;;;0.30;0.30;;;19.90;93.70;;;;;;4952190;28;20141;-71
2022/05/31 09:46:44;;;;;;;0.38;0.38;;;19.70;90.90;;;;;;4977242;28;20046;-70
2022/05/31 09:49:39;;;;;;;3.50;1.48;;;19.40;92.40;;;;;;4961022;28;20055;-70
2022/05/31 09:52:35;;;;;;;0.55;0.55;;;19.20;91.40;;;;;;4966352;28;20050;-70
2022/05/31 09:58:08;;;;;;;0.50;0.50;;;18.70;93.10;;;;;;4976684;28;20055;-70
2022/05/31 10:00:36;;;;;;;0.30;0.30;;;18.40;92.90;;;;;;4959599;28;20494;-70
2022/05/31 10:03:12;;;;;;;0.65;0.63;;;18.20;93.40;;;;;;4959906;28;20090;-71
2022/05/31 10:05:42;;;;;;;1.02;0.95;;;18.00;95.20;;;;;;4962088;28;20057;-71
2022/05/31 10:08:31;;;;;;;5.97;1.15;;;17.70;95.00;;;;;;4979219;28;20065;-71
2022/05/31 10:11:02;;;;;;;0.40;0.40;;;17.70;96.10;;;;;;4978979;28;20061;-70
2022/05/31 10:13:38;;;;;;;0.30;0.30;;;17.80;93.60;;;;;;4978583;28;20112;-71
2022/05/31 10:16:17;;;;;;;0.45;0.45;;;17.70;96.40;;;;;;4978951;28;20054;-70
2022/05/31 10:18:51;;;;;;;0.30;0.30;;;17.60;94.60;;;;;;4978537;28;20113;-71
2022/05/31 10:21:38;;;;;;;0.43;0.43;;;17.80;95.70;;;;;;4985806;28;20042;-71
2022/05/31 10:24:20;;;;;;;3.10;0.80;;;18.10;96.50;;;;;;4959389;28;20062;-71
2022/05/31 10:27:05;;;;;;;0.40;0.40;;;18.20;96.30;;;;;;4959653;28;20066;-70
2022/05/31 10:29:36;;;;;;;0.30;0.30;;;18.50;95.30;;;;;;4959354;28;20054;-71
2022/05/31 10:32:28;;;;;;;0.30;0.30;;;18.50;94.90;;;;;;4976289;28;20042;-71
2022/05/31 10:35:16;;;;;;;0.30;0.30;;;18.50;94.00;;;;;;4976323;28;20451;-71
2022/05/31 10:37:55;;;;;;;0.30;0.30;;;18.50;95.30;;;;;;4995889;28;20042;-71
2022/05/31 10:40:26;;;;;;;0.35;0.35;;;18.40;94.20;;;;;;4978612;28;20053;-71
2022/05/31 10:42:56;;;;;;;0.40;0.40;;;18.40;94.00;;;;;;4978168;28;20120;-71
2022/05/31 10:45:26;;;;;;;0.40;0.40;;;18.40;95.60;;;;;;4977982;28;20054;-71
2022/05/31 10:47:55;;;;;;;0.20;0.20;;;18.50;93.80;;;;;;4995640;28;20058;-71
2022/05/31 10:50:33;;;;;;;0.40;0.40;;;18.80;95.10;;;;;;4976642;28;20455;-71
2022/05/31 10:53:30;;;;;;;1.40;0.65;;;19.00;94.60;;;;;;4976200;28;20455;-71
2022/05/31 10:56:05;;;;;;;0.30;0.30;;;19.20;92.40;;;;;;4959204;28;20094;-71
2022/05/31 10:58:59;;;;;;;0.45;0.45;;;19.30;93.10;;;;;;4975876;28;20051;-71
2022/05/31 11:01:31;;;;;;;0.35;0.35;;;19.30;92.30;;;;;;4976691;28;20412;-71
2022/05/31 11:04:01;;;;;;;0.30;0.30;;;19.40;92.80;;;;;;4959417;28;20355;-71
2022/05/31 11:07:07;;;;;;;0.30;0.30;;;19.50;88.50;;;;;;4970766;28;20096;-71
2022/05/31 11:12:59;;;;;;;0.30;0.30;;;19.70;91.00;;;;;;4999698;28;20042;-71
2022/05/31 11:15:35;;;;;;;0.30;0.30;;;19.70;89.40;;;;;;4979904;28;20046;-71
2022/05/31 11:18:26;;;;;;;0.45;0.45;;;19.50;90.80;;;;;;4998748;28;20057;-71
2022/05/31 11:21:03;;;;;;;0.30;0.30;;;19.50;91.10;;;;;;4999532;28;20363;-71
2022/05/31 11:23:42;;;;;;;0.40;0.40;;;19.40;89.90;;;;;;4981953;28;20051;-71
2022/05/31 11:26:28;;;;;;;0.30;0.30;;;19.20;90.80;;;;;;4981881;28;20085;-70
2022/05/31 11:29:05;;;;;;;0.77;0.57;;;19.40;94.00;;;;;;4981570;28;20054;-70
2022/05/31 11:31:56;;;;;;;0.30;0.30;;;19.50;93.80;;;;;;4970384;28;20047;-71
2022/05/31 11:34:52;;;;;;;1.13;0.60;;;19.70;91.50;;;;;;4962626;28;20061;-71
2022/05/31 11:37:45;;;;;;;0.52;0.47;;;19.70;90.60;;;;;;4962619;28;20066;-71
2022/05/31 11:40:34;;;;;;;0.30;0.30;;;20.00;90.40;;;;;;4962119;28;20043;-71
2022/05/31 11:43:35;;;;;;;0.40;0.40;;;20.40;91.90;;;;;;4979201;28;20038;-71
2022/05/31 11:46:28;;;;;;;0.50;0.50;;;20.90;89.50;;;;;;4985480;28;20452;-71
2022/05/31 11:49:02;;;;;;;0.30;0.30;;;20.40;82.00;;;;;;4962496;28;20050;-71
2022/05/31 11:51:47;;;;;;;0.47;0.47;;;20.40;84.80;;;;;;4978916;28;20532;-71
2022/05/31 11:54:26;;;;;;;0.68;0.68;;;20.10;85.10;;;;;;4979158;28;20473;-71
2022/05/31 11:57:36;;;;;;;0.50;0.50;;;20.10;87.80;;;;;;4961642;28;20053;-71
2022/05/31 12:00:06;;;;;;;0.30;0.30;;;20.20;90.00;;;;;;4978856;28;20046;-71
2022/05/31 12:02:54;;;;;;;0.30;0.30;;;19.70;84.00;;;;;;4989753;28;20089;-71
2022/05/31 12:05:37;;;;;;;0.20;0.20;;;19.90;84.60;;;;;;4998464;28;20070;-71
2022/05/31 12:08:27;;;;;;;0.63;0.38;;;19.80;81.40;;;;;;4980987;28;20061;-71
2022/05/31 12:10:56;;;;;;;0.20;0.20;;;20.00;88.90;;;;;;4998101;28;20043;-71
2022/05/31 12:13:24;;;;;;;0.25;0.25;;;20.30;83.30;;;;;;4998531;28;20414;-71
2022/05/31 12:15:51;;;;;;;0.43;0.43;;;20.50;79.20;;;;;;4981209;28;20042;-71
2022/05/31 12:18:36;;;;;;;1.73;0.43;;;20.40;79.30;;;;;;4961332;28;20066;-71
2022/05/31 12:21:10;;;;;;;0.40;0.40;;;20.30;79.30;;;;;;4961228;28;20059;-71
2022/05/31 12:23:54;;;;;;;0.20;0.20;;;20.40;82.20;;;;;;4978184;28;20435;-71
2022/05/31 12:26:33;;;;;;;0.20;0.20;;;20.60;84.60;;;;;;4961699;28;20349;-71
2022/05/31 12:29:00;;;;;;;0.25;0.25;;;20.50;81.60;;;;;;4961090;28;20137;-71
2022/05/31 12:31:31;;;;;;;0.20;0.20;;;20.30;82.50;;;;;;4967669;28;20420;-71
2022/05/31 12:34:21;;;;;;;0.55;0.47;;;20.10;79.90;;;;;;4997553;28;20472;-71
2022/05/31 12:37:08;;;;;;;0.30;0.30;;;20.10;84.70;;;;;;4980790;28;20046;-71
2022/05/31 12:39:36;;;;;;;0.43;0.43;;;19.90;83.00;;;;;;4980334;28;20455;-71
2022/05/31 12:42:32;;;;;;;0.30;0.30;;;19.80;84.80;;;;;;4978050;28;20113;-71
2022/05/31 12:45:19;;;;;;;0.45;0.45;;;19.40;83.00;;;;;;4980890;28;20046;-71
2022/05/31 12:47:51;;;;;;;0.30;0.30;;;19.20;79.00;;;;;;4997503;28;20042;-70
2022/05/31 12:50:43;;;;;;;0.52;0.30;;;19.20;83.30;;;;;;4980736;28;20057;-71
2022/05/31 12:55:37;;;;;;;0.40;0.40;;;18.80;79.40;;;;;;4980453;28;20058;-71
2022/05/31 13:00:56;;;;;;;0.52;0.52;;;18.80;90.10;;;;;;4981598;28;20455;-70
2022/05/31 13:03:34;;;;;;;0.40;0.40;;;18.80;88.40;;;;;;4997218;28;20151;-71
2022/05/31 13:06:22;;;;;;;0.40;0.40;;;18.70;87.70;;;;;;4980271;28;20069;-70
2022/05/31 13:08:57;;;;;;;0.77;0.60;;;18.60;89.50;;;;;;4980255;28;20054;-71
2022/05/31 13:20:04;;;;;;;0.30;0.30;;;18.00;88.70;;;;;;4956928;28;20058;-71
2022/05/31 13:22:37;;;;;;;0.40;0.40;;;18.00;91.90;;;;;;4960867;28;20055;-71
2022/05/31 13:25:28;;;;;;;0.30;0.30;;;17.90;91.80;;;;;;4977411;28;20443;-71
2022/05/31 13:28:00;;;;;;;0.47;0.40;;;17.80;91.20;;;;;;4977275;28;20054;-71
2022/05/31 13:30:29;;;;;;;0.30;0.30;;;17.70;92.90;;;;;;4976641;28;20050;-70
2022/05/31 13:32:57;;;;;;;0.50;0.50;;;17.60;91.60;;;;;;4979712;28;20062;-71
2022/05/31 13:35:28;;;;;;;0.65;0.65;;;17.50;91.40;;;;;;4979369;28;20474;-70
2022/05/31 13:38:04;;;;;;;0.40;0.40;;;17.40;90.90;;;;;;4979210;28;20086;-71
2022/05/31 13:40:51;;;;;;;0.50;0.50;;;17.30;91.70;;;;;;4979833;28;20046;-71
2022/05/31 13:43:24;;;;;;;0.32;0.32;;;17.20;91.80;;;;;;4977021;28;20471;-70
2022/05/31 13:45:53;;;;;;;0.20;0.20;;;17.10;92.20;;;;;;4977274;28;20039;-70
2022/05/31 13:48:21;;;;;;;0.30;0.30;;;17.00;91.80;;;;;;4959601;28;20058;-70
2022/05/31 13:50:54;;;;;;;0.30;0.30;;;16.90;94.40;;;;;;4960200;28;20141;-71
2022/05/31 13:53:20;;;;;;;1.67;0.57;;;16.90;92.60;;;;;;4959751;28;20061;-70